Latest Coastal Weather Observations for King Island Airport

IDT60701

Issued at 5:52 am EDT Tuesday 7 February 2023 (issued every 10 minutes, with the page automatically refreshed every 10 minutes)

About coastal observations | Map of coastal stations | Coastal observations for TAS | Marine services | Other Formats
Station Details ID: 098017 Name: KING ISLAND AIRPORT Lat: -39.88 Lon: 143.89 Height: 35.42 m
Data from the previous 72 hours. | See also: Recent months at King Island Airport
Date/Time
EDT
Wind Sea
Height
m
Swell Vis
km
Cloud Weather Temp
°C
Press
MSL
hPa
Rain since
9am
mm
Dir  Spd
kts
Gust
kts
Height
m
Period
s
Dir
07/05:30am SW 8 14 - - - - 10 Cloudy - 14.4 1018.9 0.0
07/05:00am SSW 12 18 - - - - 10 Partly cloudy - 13.9 1018.9 0.0
07/04:30am SW 13 17 - - - - 10 Cloudy - 14.6 1018.9 0.0
07/04:00am SSW 12 18 - - - - 10 Cloudy - 14.5 1019.0 0.0
07/03:30am SSW 13 16 - - - - 10 Cloudy - 14.7 1019.1 0.0
07/03:00am SSW 12 17 - - - - 10 Mostly cloudy - 14.9 1019.2 0.0
07/02:30am SW 11 16 - - - - 10 Partly cloudy - 15.2 1019.4 0.0
07/02:00am SW 12 17 - - - - 10 Partly cloudy - 15.1 1019.5 0.0
07/01:30am SW 9 13 - - - - 10 Partly cloudy - 15.4 1019.7 0.0
07/01:00am SW 8 12 - - - - 10 Partly cloudy - 15.3 1019.7 0.0
07/12:30am SW 7 8 - - - - 10 Partly cloudy - 15.1 1019.8 0.0
07/12:00am SW 5 7 - - - - 10 Cloudy - 14.9 1019.8 0.0
 
Date/Time
EDT
Wind Sea
Height
m
Swell Vis
km
Cloud Weather Temp
°C
Press
MSL
hPa
Rain since
9am
mm
Dir  Spd
kts
Gust
kts
Height
m
Period
s
Dir
06/11:30pm SW 6 9 - - - - 10 Partly cloudy - 14.5 1020.1 0.0
06/11:18pm SSW 9 12 - - - - 10 Partly cloudy - 14.3 1020.1 0.0
06/11:00pm SSW 9 11 - - - - 10 Partly cloudy - 14.6 1020.2 0.0
06/10:58pm SSW 9 11 - - - - 10 Partly cloudy - 14.6 1020.2 0.0
06/10:30pm WSW 8 11 - - - - 10 Partly cloudy - 15.1 1020.4 0.0
06/10:00pm SW 8 11 - - - - 10 Partly cloudy - 15.2 1020.3 0.0
06/09:30pm WSW 7 11 - - - - 10 Cloudy - 15.7 1020.1 0.0
06/09:00pm SW 9 13 - - - - 10 Mostly cloudy - 16.0 1019.9 0.0
06/08:30pm SW 9 11 - - - - 10 Cloudy - 16.2 1019.8 0.0
06/08:00pm SW 11 16 - - - - 10 Cloudy - 16.1 1019.7 0.0
06/07:30pm SW 10 14 - - - - 10 Cloudy - 16.7 1019.5 0.0
06/07:00pm SW 11 15 - - - - 10 Cloudy - 16.8 1019.3 0.0
06/06:30pm SW 14 17 - - - - 10 Cloudy - 17.3 1019.2 0.0
06/06:00pm SW 12 17 - - - - 10 Cloudy - 17.3 1019.3 0.0
06/05:30pm SW 14 18 - - - - 10 Partly cloudy - 17.6 1019.4 0.0
06/05:00pm SW 15 20 - - - - 10 Partly cloudy - 18.0 1019.5 0.0
06/04:30pm SW 15 20 - - - - 10 Partly cloudy - 18.2 1019.6 0.0
06/04:00pm WSW 14 19 - - - - 10 Partly cloudy - 18.2 1019.6 0.0
06/03:30pm SW 14 19 - - - - 10 Partly cloudy - 18.8 1019.8 0.0
06/03:00pm WSW 13 18 - - - - 10 Cloudy - 19.7 1019.9 0.0
06/02:30pm WSW 13 18 - - - - 10 Partly cloudy - 18.0 1020.1 0.0
06/02:00pm WSW 14 21 - - - - 10 Partly cloudy - 18.8 1020.0 0.0
06/01:30pm WSW 14 18 - - - - 10 Partly cloudy - 17.8 1020.0 0.0
06/01:00pm W 15 20 - - - - 10 Partly cloudy - 18.7 1020.0 0.0
06/12:30pm W 13 19 - - - - 10 Partly cloudy - 17.9 1020.0 0.0
06/12:00pm WSW 14 21 - - - - 10 Mostly cloudy - 18.8 1020.1 0.0
06/11:30am WSW 14 19 - - - - 10 Partly cloudy - 18.5 1020.1 0.0
06/11:00am W 14 19 - - - - 10 Partly cloudy - 18.2 1020.1 0.0
06/10:30am WSW 14 18 - - - - 10 Partly cloudy - 17.4 1019.9 0.0
06/10:00am WSW 13 17 - - - - 10 Partly cloudy - 16.7 1020.0 0.0
06/09:30am WSW 9 13 - - - - 10 Partly cloudy - 15.6 1019.9 0.0
06/09:08am WSW 9 13 - - - - 10 Partly cloudy - 15.7 1019.5 0.0
06/09:00am SW 10 14 - - - - 10 Mostly cloudy Recent precip. 15.7 1019.6 0.6
06/08:35am SW 7 9 - - - - 10 Partly cloudy - 15.1 1019.5 0.6
06/08:30am WSW 7 11 - - - - 10 Partly cloudy - 14.9 1019.4 0.6
06/08:20am WSW 11 16 - - - - 4 Partly cloudy - 14.8 1019.3 0.6
06/08:17am WSW 11 16 - - - - 5 Partly cloudy - 15.0 1019.3 0.4
06/08:00am WSW 7 9 - - - - 10 Partly cloudy - 14.8 1019.2 0.2
06/07:46am SW 7 10 - - - - 10 Partly cloudy - 14.4 1019.1 0.2
06/07:30am SW 8 10 - - - - 10 Partly cloudy - 14.3 1018.8 0.2
06/07:18am W 9 13 - - - - 10 Partly cloudy - 14.6 1018.7 0.2
06/07:03am WSW 9 13 - - - - 5 Partly cloudy - 14.4 1018.6 0.2
06/07:00am WSW 8 13 - - - - 8 Partly cloudy - 14.3 1018.5 0.2
06/06:30am WSW 13 18 - - - - 10 Partly cloudy - 14.6 1018.5 0.0
06/06:28am WSW 12 17 - - - - 10 Partly cloudy - 14.7 1018.5 0.0
06/06:00am WSW 9 14 - - - - 10 Cloudy - 15.3 1018.0 0.0
06/05:30am WSW 7 9 - - - - 10 Cloudy - 15.2 1017.9 0.0
06/05:00am WSW 10 15 - - - - 10 Cloudy - 15.0 1017.7 0.0
06/04:30am WSW 11 17 - - - - 10 Partly cloudy - 15.0 1017.5 0.0
06/04:00am WSW 9 13 - - - - 10 Cloudy - 15.1 1017.5 0.0
06/03:30am WSW 12 17 - - - - 10 Cloudy - 15.3 1017.6 0.0
06/03:00am WSW 9 13 - - - - 10 Cloudy - 15.5 1017.6 0.0
06/02:30am WSW 8 11 - - - - 10 Cloudy - 15.3 1017.4 0.0
06/02:00am WSW 10 15 - - - - 10 Cloudy - 15.4 1017.5 0.0
06/01:30am W 9 13 - - - - 10 Cloudy - 15.4 1017.6 0.0
06/01:00am WSW 9 12 - - - - 10 Cloudy - 15.5 1017.7 0.0
06/12:30am WSW 11 14 - - - - 10 Cloudy - 15.6 1017.9 0.0
06/12:00am W 8 11 - - - - 10 Cloudy - 15.7 1018.0 0.0
 
Date/Time
EDT
Wind Sea
Height
m
Swell Vis
km
Cloud Weather Temp
°C
Press
MSL
hPa
Rain since
9am
mm
Dir  Spd
kts
Gust
kts
Height
m
Period
s
Dir
05/11:30pm WSW 9 12 - - - - 10 Cloudy - 15.7 1018.1 0.0
05/11:00pm SW 8 11 - - - - 10 Cloudy - 15.7 1018.3 0.0
05/10:30pm SW 11 16 - - - - 10 Cloudy - 15.7 1018.2 0.0
05/10:00pm SW 10 13 - - - - 10 Cloudy - 15.9 1018.0 0.0
05/09:30pm WSW 10 13 - - - - 10 Partly cloudy - 15.7 1017.8 0.0
05/09:00pm WSW 10 13 - - - - 10 Cloudy - 15.8 1017.8 0.0
05/08:30pm SW 11 15 - - - - 10 Partly cloudy - 15.6 1017.6 0.0
05/08:00pm SW 9 13 - - - - 10 Partly cloudy - 15.5 1017.3 0.0
05/07:30pm SW 10 13 - - - - 10 Partly cloudy - 15.9 1017.2 0.0
05/07:00pm WSW 12 16 - - - - 10 Partly cloudy - 16.2 1017.0 0.0
05/06:30pm W 9 12 - - - - 10 Partly cloudy - 15.9 1016.9 0.0
05/06:00pm WSW 11 16 - - - - 10 Cloudy - 16.4 1017.0 0.0
05/05:30pm WSW 11 14 - - - - 10 Partly cloudy - 17.2 1017.0 0.0
05/05:00pm W 11 14 - - - - 10 Partly cloudy - 17.1 1017.0 0.0
05/04:30pm WSW 13 17 - - - - 10 Partly cloudy - 17.7 1017.2 0.0
05/04:00pm SW 13 17 - - - - 10 Partly cloudy - 17.9 1017.3 0.0
05/03:30pm WSW 14 17 - - - - 10 Partly cloudy - 17.6 1017.3 0.0
05/03:00pm WSW 13 19 - - - - 10 Mostly cloudy - 18.6 1017.1 0.0
05/02:30pm WSW 13 19 - - - - 10 Partly cloudy - 18.2 1017.1 0.0
05/02:00pm WSW 15 19 - - - - 10 Cloudy - 17.7 1017.1 0.0
05/01:30pm WSW 14 17 - - - - 10 Cloudy - 18.2 1017.1 0.0
05/01:00pm WSW 13 17 - - - - 10 Partly cloudy - 18.4 1017.2 0.0
05/12:30pm WSW 13 18 - - - - 10 Cloudy - 18.5 1017.1 0.0
05/12:00pm WSW 12 16 - - - - 10 Mostly cloudy - 17.2 1017.1 0.0
05/11:30am WSW 13 17 - - - - 10 Partly cloudy - 17.0 1016.9 0.0
05/11:00am SW 12 16 - - - - 10 Partly cloudy - 17.5 1016.7 0.0
05/10:30am WSW 11 15 - - - - 10 Partly cloudy - 16.5 1016.7 0.0
05/10:00am WSW 13 19 - - - - 10 Partly cloudy - 15.8 1016.5 0.0
05/09:30am WSW 12 15 - - - - 10 Cloudy - 16.4 1016.2 0.0
05/09:00am WSW 11 15 - - - - 10 Cloudy - 16.2 1016.2 0.0
05/08:30am WSW 12 17 - - - - 10 Cloudy - 15.6 1015.7 0.0
05/08:00am WSW 10 14 - - - - 10 Cloudy - 15.6 1015.4 0.0
05/07:30am SW 11 15 - - - - 10 Partly cloudy - 15.2 1014.9 0.0
05/07:00am WSW 9 13 - - - - 10 Cloudy - 15.1 1014.5 0.0
05/06:30am WSW 7 9 - - - - 10 Cloudy - 14.7 1014.1 0.0
05/06:00am WSW 12 15 - - - - 10 Cloudy - 14.7 1013.7 0.0
05/05:30am SW 9 12 - - - - 10 Cloudy - 14.8 1013.2 0.0
05/05:00am SW 11 15 - - - - 10 Cloudy - 15.1 1013.0 0.0
05/04:30am SW 9 12 - - - - 10 Partly cloudy - 15.0 1012.6 0.0
05/04:00am SW 11 15 - - - - 10 Cloudy - 15.1 1012.4 0.0
05/03:30am SW 13 19 - - - - 10 Partly cloudy - 15.2 1012.3 0.0
05/03:00am WSW 12 16 - - - - 10 Cloudy - 15.2 1012.2 0.0
05/02:30am WSW 12 16 - - - - 10 Partly cloudy - 14.6 1012.0 0.0
05/02:00am WSW 13 17 - - - - 10 Partly cloudy - 14.7 1012.0 0.0
05/01:30am WSW 14 19 - - - - 10 - - 14.7 1012.0 0.0
05/01:00am WSW 15 21 - - - - 10 Cloudy - 14.9 1012.1 0.0
05/12:30am WSW 14 19 - - - - 10 Partly cloudy - 15.0 1012.2 0.0
05/12:00am WSW 14 21 - - - - 10 Partly cloudy - 15.1 1012.1 0.0
 
Date/Time
EDT
Wind Sea
Height
m
Swell Vis
km
Cloud Weather Temp
°C
Press
MSL
hPa
Rain since
9am
mm
Dir  Spd
kts
Gust
kts
Height
m
Period
s
Dir
04/11:30pm SW 15 20 - - - - 10 Partly cloudy - 15.0 1012.1 0.0
04/11:00pm WSW 15 20 - - - - 10 Cloudy - 15.2 1012.2 0.0
04/10:30pm SW 15 20 - - - - 10 Cloudy - 15.4 1012.3 0.0
04/10:00pm SW 17 21 - - - - 10 Partly cloudy - 15.4 1012.2 0.0
04/09:30pm WSW 16 25 - - - - 10 Partly cloudy - 15.3 1011.7 0.0
04/09:00pm WSW 16 22 - - - - 10 Cloudy - 15.1 1011.5 0.0
04/08:30pm SW 15 22 - - - - 10 Partly cloudy - 14.8 1011.1 0.0
04/08:00pm SW 18 25 - - - - 10 Partly cloudy - 16.0 1010.7 0.0
04/07:30pm WSW 18 22 - - - - 10 Partly cloudy - 16.1 1010.2 0.0
04/07:01pm SW 18 28 - - - - 10 Cloudy - 16.6 1009.7 0.0
04/07:00pm SW 19 28 - - - - 10 Partly cloudy - 16.5 1009.7 0.0
04/06:30pm WSW 20 27 - - - - 10 Partly cloudy - 16.4 1009.2 0.0
04/06:00pm SW 19 27 - - - - 10 Cloudy - 16.8 1008.8 0.0
04/05:30pm SW 20 29 - - - - 10 Partly cloudy - 17.8 1008.5 0.0
04/05:00pm SW 22 32 - - - - 10 Partly cloudy - 19.0 1008.2 0.0
04/04:37pm SW 21 31 - - - - 10 Partly cloudy - 17.8 1007.9 0.0
04/04:30pm SW 23 31 - - - - 10 Partly cloudy - 18.2 1007.8 0.0
04/04:00pm SW 22 29 - - - - 10 Partly cloudy - 17.7 1007.5 0.0
04/03:45pm SW 20 33 - - - - 10 Partly cloudy - 18.7 1007.3 0.0
04/03:30pm SW 21 30 - - - - 10 Partly cloudy - 19.3 1007.3 0.0
04/03:04pm SW 21 31 - - - - 10 Partly cloudy - 19.3 1007.1 0.0
04/03:00pm SW 21 28 - - - - 10 Cloudy - 19.2 1007.1 0.0
04/02:40pm SW 19 31 - - - - 10 Partly cloudy - 18.1 1006.9 0.0
04/02:30pm SW 23 30 - - - - 10 Partly cloudy - 17.2 1006.9 0.0
04/02:16pm SW 23 34 - - - - 10 Partly cloudy - 18.0 1006.7 0.0
04/02:00pm SW 21 28 - - - - 10 Partly cloudy - 17.0 1006.7 0.0
04/01:46pm SW 22 32 - - - - 10 Partly cloudy - 18.4 1006.4 0.0
04/01:30pm SW 23 30 - - - - 10 Partly cloudy - 18.3 1006.3 0.0
04/01:00pm SW 23 29 - - - - 10 Partly cloudy - 17.5 1005.9 0.0
04/12:30pm SW 23 33 - - - - 10 Partly cloudy - 17.5 1005.7 0.0
04/12:27pm SW 23 33 - - - - 10 Partly cloudy - 17.2 1005.7 0.0
04/12:00pm SW 21 29 - - - - 10 Cloudy - 17.2 1005.5 0.0
04/11:41am SW 23 33 - - - - 10 Partly cloudy - 17.4 1005.3 0.0
04/11:30am SW 22 27 - - - - 10 Partly cloudy - 18.0 1005.1 0.0
04/11:00am SW 23 31 - - - - 10 Partly cloudy - 17.7 1004.5 0.0
04/10:30am SW 21 34 - - - - 10 Partly cloudy - 17.6 1004.3 0.0
04/10:25am SW 21 34 - - - - 10 Partly cloudy - 17.0 1004.2 0.0
04/10:00am SW 21 30 - - - - 10 Partly cloudy - 16.5 1003.9 0.0
04/09:30am SW 22 29 - - - - 10 Partly cloudy - 15.8 1003.2 0.0
04/09:00am SW 21 28 - - - - 10 Mostly cloudy - 15.2 1002.6 5.4
04/08:30am SW 22 30 - - - - 10 Partly cloudy - 14.8 1002.1 5.4
04/08:23am SW 20 30 - - - - 10 Partly cloudy - 14.7 1002.0 5.4
04/08:00am SW 21 30 - - - - 10 Partly cloudy - 14.6 1001.5 5.4
04/07:30am SW 23 34 - - - - 10 Partly cloudy - 13.6 1001.2 5.4
04/07:24am SW 23 34 - - - - 10 Partly cloudy - 14.1 1001.0 5.4
04/07:00am SW 21 27 - - - - 10 Partly cloudy - 14.1 1000.6 5.4
04/06:30am SW 19 25 - - - - 10 Partly cloudy - 14.2 999.9 5.4
04/06:00am SSW 19 24 - - - - 10 Cloudy Showers 14.0 999.4 5.4

Other formats

Comma delimited format used in spreadsheet applications
http://www.bom.gov.au/fwo/IDT60701/IDT60701.94850.axf

JavaScript Object Notation format (JSON) in row-major order
http://www.bom.gov.au/fwo/IDT60701/IDT60701.94850.json

Data quality

Most of these data are generated automatically and are frequently updated. Quality checks on data are not normally performed. It is possible for incorrect values to appear. Refer to information at About Latest Weather Observations and please check the disclaimer before using these data.